Sunnyvale, California
Current Conditions -  °F | °C
As of 11:56 AM on Thursday 27 Nov 2014 (Local Time) from KNUQ Reporting Station
Clear Clear  
Wind Chill: 63°   Ceiling: Unl
Heat Index: 63°   Visibility: 7mi
Dew Point: 48°   Wind: 5mph
Humidity: 58%   Direction: 350°N
Pressure: 30.15"   Gusts: NA
Location:  37.37°N, 122.03°W
Report Text: KNUQ 271956Z AUTO 35004KT 7SM CLR 17/09 A3015 RMK AO2 SLP211 T01720089 TSNO
Loading
Personal Weather Stations






























Interactive Weather Map New forecast layout! Learn more

10-Day Weather Forecast

Advertisements
Track Severe Weather on mobile